Terminal Aerodrome Forecast
Issued by NWS Green Bay, WI

Home | Current Version | Previous Version | Text Only | Print | Product List | Glossary Off
Versions: 1 2 3 4 5 6 7 8 9 10 11 12 13 14 15 16 17 18 19 20 21 22 23 24 25 26 27 28 29 30 31 32 33 34 35 36 37 38 39 40

000
FTUS43 KGRB 251600 AAA
TAFGRB
TAF AMD
KGRB 251631Z 2517/2612 04017G26KT 6SM -SN OVC025
     FM252100 04015G23KT P6SM SCT025
     FM252300 04009KT P6SM SCT200
     FM260400 VRB03KT P6SM SCT100 BKN200
     FM261000 VRB03KT P6SM BKN090=

USA.gov is the U.S. government's official web portal to all federal, state and local government web resources and services.